sensor_id;sensor_type;location;lat;lon;timestamp;pressure;altitude;pressure_sealevel;temperature;humidity
8069;BME280;4077;43.702;24.896;2022-08-02T00:01:11;99150.16;;;20.34;100.00
8069;BME280;4077;43.702;24.896;2022-08-02T00:03:37;99161.75;;;20.27;100.00
8069;BME280;4077;43.702;24.896;2022-08-02T00:06:03;99154.28;;;20.15;100.00
8069;BME280;4077;43.702;24.896;2022-08-02T00:08:29;99160.78;;;20.03;100.00
8069;BME280;4077;43.702;24.896;2022-08-02T00:10:54;99161.19;;;19.91;100.00
8069;BME280;4077;43.702;24.896;2022-08-02T00:13:20;99160.63;;;19.81;100.00
8069;BME280;4077;43.702;24.896;2022-08-02T00:15:45;99160.84;;;19.74;100.00
8069;BME280;4077;43.702;24.896;2022-08-02T00:18:10;99161.09;;;19.66;100.00
8069;BME280;4077;43.702;24.896;2022-08-02T00:20:36;99164.69;;;19.63;100.00
8069;BME280;4077;43.702;24.896;2022-08-02T00:23:01;99150.75;;;19.61;100.00
8069;BME280;4077;43.702;24.896;2022-08-02T00:25:27;99160.50;;;19.56;100.00
8069;BME280;4077;43.702;24.896;2022-08-02T00:27:52;99154.44;;;19.54;100.00
8069;BME280;4077;43.702;24.896;2022-08-02T00:30:18;99153.63;;;19.52;100.00
8069;BME280;4077;43.702;24.896;2022-08-02T00:32:43;99154.50;;;19.53;100.00
8069;BME280;4077;43.702;24.896;2022-08-02T00:35:09;99155.53;;;19.47;100.00
8069;BME280;4077;43.702;24.896;2022-08-02T00:37:38;99164.47;;;19.40;100.00
8069;BME280;4077;43.702;24.896;2022-08-02T00:40:04;99164.63;;;19.35;100.00
8069;BME280;4077;43.702;24.896;2022-08-02T00:42:29;99172.53;;;19.32;100.00
8069;BME280;4077;43.702;24.896;2022-08-02T00:44:55;99159.59;;;19.28;100.00
8069;BME280;4077;43.702;24.896;2022-08-02T00:47:20;99154.56;;;19.22;100.00
8069;BME280;4077;43.702;24.896;2022-08-02T00:49:46;99159.91;;;19.17;100.00
8069;BME280;4077;43.702;24.896;2022-08-02T00:52:11;99155.59;;;19.14;100.00
8069;BME280;4077;43.702;24.896;2022-08-02T00:54:37;99154.75;;;19.14;100.00
8069;BME280;4077;43.702;24.896;2022-08-02T00:57:02;99152.34;;;19.06;100.00
8069;BME280;4077;43.702;24.896;2022-08-02T00:59:28;99158.50;;;19.05;100.00
8069;BME280;4077;43.702;24.896;2022-08-02T01:01:53;99153.44;;;18.99;100.00
8069;BME280;4077;43.702;24.896;2022-08-02T01:04:19;99153.53;;;18.96;100.00
8069;BME280;4077;43.702;24.896;2022-08-02T01:06:45;99152.63;;;18.97;100.00
8069;BME280;4077;43.702;24.896;2022-08-02T01:09:10;99152.00;;;18.89;100.00
8069;BME280;4077;43.702;24.896;2022-08-02T01:11:36;99157.22;;;18.89;100.00
8069;BME280;4077;43.702;24.896;2022-08-02T01:14:04;99131.41;;;18.77;100.00
8069;BME280;4077;43.702;24.896;2022-08-02T01:16:35;99164.28;;;18.85;100.00
8069;BME280;4077;43.702;24.896;2022-08-02T01:30:04;99166.53;;;18.65;100.00
8069;BME280;4077;43.702;24.896;2022-08-02T01:32:36;99168.31;;;18.65;100.00
8069;BME280;4077;43.702;24.896;2022-08-02T01:35:22;99168.50;;;18.57;100.00
8069;BME280;4077;43.702;24.896;2022-08-02T01:38:06;99165.25;;;18.49;100.00
8069;BME280;4077;43.702;24.896;2022-08-02T01:40:36;99163.63;;;18.43;100.00
8069;BME280;4077;43.702;24.896;2022-08-02T01:43:06;99165.50;;;18.38;100.00
8069;BME280;4077;43.702;24.896;2022-08-02T01:45:34;99157.81;;;18.34;100.00
8069;BME280;4077;43.702;24.896;2022-08-02T01:48:03;99160.44;;;18.32;100.00
8069;BME280;4077;43.702;24.896;2022-08-02T01:50:31;99157.06;;;18.28;100.00
8069;BME280;4077;43.702;24.896;2022-08-02T01:53:01;99150.31;;;18.20;100.00
8069;BME280;4077;43.702;24.896;2022-08-02T01:55:49;99157.41;;;18.15;100.00
8069;BME280;4077;43.702;24.896;2022-08-02T01:58:16;99153.22;;;18.08;100.00
8069;BME280;4077;43.702;24.896;2022-08-02T02:00:42;99161.09;;;18.04;100.00
8069;BME280;4077;43.702;24.896;2022-08-02T02:03:14;99158.63;;;18.00;100.00
8069;BME280;4077;43.702;24.896;2022-08-02T02:05:42;99148.31;;;17.94;100.00
8069;BME280;4077;43.702;24.896;2022-08-02T02:08:08;99154.41;;;17.94;100.00
8069;BME280;4077;43.702;24.896;2022-08-02T02:10:37;99161.44;;;17.92;100.00
8069;BME280;4077;43.702;24.896;2022-08-02T02:13:10;99158.09;;;17.86;100.00
8069;BME280;4077;43.702;24.896;2022-08-02T02:15:43;99155.63;;;17.80;100.00
8069;BME280;4077;43.702;24.896;2022-08-02T02:18:17;99159.22;;;17.74;100.00
8069;BME280;4077;43.702;24.896;2022-08-02T02:20:45;99160.19;;;17.71;100.00
8069;BME280;4077;43.702;24.896;2022-08-02T02:23:11;99161.94;;;17.68;100.00
8069;BME280;4077;43.702;24.896;2022-08-02T02:25:39;99162.94;;;17.64;100.00
8069;BME280;4077;43.702;24.896;2022-08-02T02:28:26;99171.66;;;17.61;100.00
8069;BME280;4077;43.702;24.896;2022-08-02T02:31:06;99172.66;;;17.56;100.00
8069;BME280;4077;43.702;24.896;2022-08-02T02:33:34;99175.38;;;17.51;100.00
8069;BME280;4077;43.702;24.896;2022-08-02T02:36:01;99171.03;;;17.52;100.00
8069;BME280;4077;43.702;24.896;2022-08-02T02:38:30;99175.47;;;17.46;100.00
8069;BME280;4077;43.702;24.896;2022-08-02T02:40:58;99179.03;;;17.42;100.00
8069;BME280;4077;43.702;24.896;2022-08-02T02:43:27;99182.53;;;17.41;100.00
8069;BME280;4077;43.702;24.896;2022-08-02T02:45:54;99179.19;;;17.35;100.00
8069;BME280;4077;43.702;24.896;2022-08-02T02:48:20;99180.13;;;17.32;100.00
8069;BME280;4077;43.702;24.896;2022-08-02T02:50:46;99172.47;;;17.25;100.00
8069;BME280;4077;43.702;24.896;2022-08-02T02:53:15;99180.34;;;17.23;100.00
8069;BME280;4077;43.702;24.896;2022-08-02T02:55:43;99175.22;;;17.17;100.00
8069;BME280;4077;43.702;24.896;2022-08-02T02:58:09;99182.22;;;17.15;100.00
8069;BME280;4077;43.702;24.896;2022-08-02T03:00:35;99183.19;;;17.11;100.00
8069;BME280;4077;43.702;24.896;2022-08-02T03:03:20;99178.03;;;17.06;100.00
8069;BME280;4077;43.702;24.896;2022-08-02T03:05:45;99185.03;;;17.04;100.00
8069;BME280;4077;43.702;24.896;2022-08-02T03:08:11;99183.50;;;16.95;100.00
8069;BME280;4077;43.702;24.896;2022-08-02T03:10:37;99193.13;;;16.90;100.00
8069;BME280;4077;43.702;24.896;2022-08-02T03:13:03;99195.78;;;16.87;100.00
8069;BME280;4077;43.702;24.896;2022-08-02T03:15:30;99188.00;;;16.86;100.00
8069;BME280;4077;43.702;24.896;2022-08-02T03:17:55;99196.66;;;16.88;100.00
8069;BME280;4077;43.702;24.896;2022-08-02T03:20:20;99200.19;;;16.85;100.00
8069;BME280;4077;43.702;24.896;2022-08-02T03:22:49;99199.34;;;16.83;100.00
8069;BME280;4077;43.702;24.896;2022-08-02T03:25:16;99201.16;;;16.80;100.00
8069;BME280;4077;43.702;24.896;2022-08-02T03:27:42;99190.81;;;16.75;100.00
8069;BME280;4077;43.702;24.896;2022-08-02T03:30:10;99196.91;;;16.74;100.00
8069;BME280;4077;43.702;24.896;2022-08-02T03:32:37;99197.78;;;16.73;100.00
8069;BME280;4077;43.702;24.896;2022-08-02T03:35:05;99189.22;;;16.65;100.00
8069;BME280;4077;43.702;24.896;2022-08-02T03:37:32;99191.81;;;16.65;100.00
8069;BME280;4077;43.702;24.896;2022-08-02T03:40:00;99198.72;;;16.69;100.00
8069;BME280;4077;43.702;24.896;2022-08-02T03:42:27;99202.19;;;16.71;100.00
8069;BME280;4077;43.702;24.896;2022-08-02T03:44:54;99203.94;;;16.69;100.00
8069;BME280;4077;43.702;24.896;2022-08-02T03:47:20;99210.06;;;16.65;100.00
8069;BME280;4077;43.702;24.896;2022-08-02T03:49:48;99198.06;;;16.56;100.00
8069;BME280;4077;43.702;24.896;2022-08-02T03:52:14;99205.81;;;16.61;100.00
8069;BME280;4077;43.702;24.896;2022-08-02T03:54:40;99204.97;;;16.59;100.00
8069;BME280;4077;43.702;24.896;2022-08-02T03:57:06;99209.28;;;16.60;100.00
8069;BME280;4077;43.702;24.896;2022-08-02T03:59:45;99212.69;;;16.65;100.00
8069;BME280;4077;43.702;24.896;2022-08-02T04:02:12;99216.97;;;16.69;100.00
8069;BME280;4077;43.702;24.896;2022-08-02T04:04:38;99218.72;;;16.70;100.00
8069;BME280;4077;43.702;24.896;2022-08-02T04:07:04;99223.00;;;16.73;100.00
8069;BME280;4077;43.702;24.896;2022-08-02T04:09:29;99217.81;;;16.71;100.00
8069;BME280;4077;43.702;24.896;2022-08-02T04:11:55;99222.97;;;16.74;100.00
8069;BME280;4077;43.702;24.896;2022-08-02T04:14:20;99220.34;;;16.76;100.00
8069;BME280;4077;43.702;24.896;2022-08-02T04:16:52;99219.44;;;16.78;100.00
8069;BME280;4077;43.702;24.896;2022-08-02T04:19:46;99221.97;;;16.83;100.00
8069;BME280;4077;43.702;24.896;2022-08-02T04:22:18;99209.72;;;16.86;100.00
8069;BME280;4077;43.702;24.896;2022-08-02T04:24:49;99218.28;;;16.93;100.00
8069;BME280;4077;43.702;24.896;2022-08-02T04:27:16;99219.13;;;16.95;100.00
8069;BME280;4077;43.702;24.896;2022-08-02T04:29:45;99218.13;;;17.01;100.00
8069;BME280;4077;43.702;24.896;2022-08-02T04:32:11;99224.19;;;17.03;100.00
8069;BME280;4077;43.702;24.896;2022-08-02T04:34:37;99223.94;;;17.16;100.00
8069;BME280;4077;43.702;24.896;2022-08-02T04:37:03;99222.00;;;17.26;100.00
8069;BME280;4077;43.702;24.896;2022-08-02T04:39:29;99228.69;;;17.39;100.00
8069;BME280;4077;43.702;24.896;2022-08-02T04:41:55;99224.94;;;17.53;100.00
8069;BME280;4077;43.702;24.896;2022-08-02T04:44:20;99227.47;;;17.56;100.00
8069;BME280;4077;43.702;24.896;2022-08-02T04:46:46;99231.53;;;17.69;100.00
8069;BME280;4077;43.702;24.896;2022-08-02T04:49:12;99234.94;;;17.74;100.00
8069;BME280;4077;43.702;24.896;2022-08-02T04:51:40;99243.41;;;17.85;100.00
8069;BME280;4077;43.702;24.896;2022-08-02T04:54:07;99245.84;;;17.93;100.00
8069;BME280;4077;43.702;24.896;2022-08-02T04:56:33;99246.59;;;17.98;100.00
8069;BME280;4077;43.702;24.896;2022-08-02T04:58:59;99249.88;;;18.08;100.00
8069;BME280;4077;43.702;24.896;2022-08-02T05:01:24;99240.81;;;18.22;100.00
8069;BME280;4077;43.702;24.896;2022-08-02T05:03:49;99240.72;;;18.27;100.00
8069;BME280;4077;43.702;24.896;2022-08-02T05:06:15;99251.00;;;18.33;100.00
8069;BME280;4077;43.702;24.896;2022-08-02T05:08:41;99251.75;;;18.38;100.00
8069;BME280;4077;43.702;24.896;2022-08-02T05:11:06;99259.44;;;18.44;100.00
8069;BME280;4077;43.702;24.896;2022-08-02T05:13:32;99267.94;;;18.90;100.00
8069;BME280;4077;43.702;24.896;2022-08-02T05:15:57;99278.78;;;19.08;100.00
8069;BME280;4077;43.702;24.896;2022-08-02T05:18:27;99273.75;;;18.99;100.00
8069;BME280;4077;43.702;24.896;2022-08-02T05:20:53;99281.25;;;19.13;100.00
8069;BME280;4077;43.702;24.896;2022-08-02T05:23:19;99281.31;;;19.11;100.00
8069;BME280;4077;43.702;24.896;2022-08-02T05:25:44;99284.41;;;19.26;100.00
8069;BME280;4077;43.702;24.896;2022-08-02T05:28:10;99285.94;;;19.33;100.00
8069;BME280;4077;43.702;24.896;2022-08-02T05:30:35;99288.41;;;19.39;100.00
8069;BME280;4077;43.702;24.896;2022-08-02T05:33:01;99294.16;;;19.52;100.00
8069;BME280;4077;43.702;24.896;2022-08-02T05:35:26;99293.97;;;19.59;100.00
8069;BME280;4077;43.702;24.896;2022-08-02T05:37:52;99296.31;;;19.68;100.00
8069;BME280;4077;43.702;24.896;2022-08-02T05:40:17;99289.94;;;19.79;100.00
8069;BME280;4077;43.702;24.896;2022-08-02T05:42:43;99292.00;;;19.97;100.00
8069;BME280;4077;43.702;24.896;2022-08-02T05:45:09;99282.28;;;20.01;100.00
8069;BME280;4077;43.702;24.896;2022-08-02T05:47:35;99294.59;;;20.27;100.00
8069;BME280;4077;43.702;24.896;2022-08-02T05:50:02;99296.53;;;20.20;100.00
8069;BME280;4077;43.702;24.896;2022-08-02T05:52:40;99300.75;;;20.24;100.00
8069;BME280;4077;43.702;24.896;2022-08-02T05:55:11;99296.19;;;20.31;100.00
8069;BME280;4077;43.702;24.896;2022-08-02T05:58:02;99289.81;;;20.39;100.00
8069;BME280;4077;43.702;24.896;2022-08-02T06:00:31;99300.41;;;20.64;100.00
8069;BME280;4077;43.702;24.896;2022-08-02T06:06:14;99299.81;;;20.83;100.00
8069;BME280;4077;43.702;24.896;2022-08-02T06:08:47;99301.19;;;20.93;100.00
8069;BME280;4077;43.702;24.896;2022-08-02T06:11:17;99305.00;;;21.36;100.00
8069;BME280;4077;43.702;24.896;2022-08-02T06:13:46;99306.94;;;21.79;100.00
8069;BME280;4077;43.702;24.896;2022-08-02T06:16:11;99316.91;;;21.93;100.00
8069;BME280;4077;43.702;24.896;2022-08-02T06:18:40;99322.81;;;21.99;100.00
8069;BME280;4077;43.702;24.896;2022-08-02T06:21:06;99329.84;;;21.99;100.00
8069;BME280;4077;43.702;24.896;2022-08-02T06:23:33;99330.75;;;21.98;100.00
8069;BME280;4077;43.702;24.896;2022-08-02T06:26:01;99326.41;;;21.97;100.00
8069;BME280;4077;43.702;24.896;2022-08-02T06:28:27;99337.50;;;22.05;100.00
8069;BME280;4077;43.702;24.896;2022-08-02T06:30:55;99338.53;;;22.24;100.00
8069;BME280;4077;43.702;24.896;2022-08-02T06:33:20;99342.97;;;22.46;100.00
8069;BME280;4077;43.702;24.896;2022-08-02T06:38:40;99347.38;;;22.89;100.00
8069;BME280;4077;43.702;24.896;2022-08-02T06:41:13;99353.44;;;23.11;100.00
8069;BME280;4077;43.702;24.896;2022-08-02T06:43:59;99353.94;;;23.21;100.00
8069;BME280;4077;43.702;24.896;2022-08-02T06:46:24;99355.38;;;23.28;100.00
8069;BME280;4077;43.702;24.896;2022-08-02T06:48:50;99368.41;;;23.52;98.59
8069;BME280;4077;43.702;24.896;2022-08-02T06:51:16;99372.25;;;23.65;97.05
8069;BME280;4077;43.702;24.896;2022-08-02T06:53:42;99372.72;;;23.74;95.17
8069;BME280;4077;43.702;24.896;2022-08-02T06:56:08;99369.97;;;23.96;94.08
8069;BME280;4077;43.702;24.896;2022-08-02T06:58:34;99376.41;;;24.10;91.59
8069;BME280;4077;43.702;24.896;2022-08-02T07:00:59;99378.47;;;24.22;90.19
8069;BME280;4077;43.702;24.896;2022-08-02T07:03:24;99377.41;;;24.26;89.56
8069;BME280;4077;43.702;24.896;2022-08-02T07:05:51;99381.56;;;24.50;88.39
8069;BME280;4077;43.702;24.896;2022-08-02T07:08:17;99382.91;;;24.78;85.93
8069;BME280;4077;43.702;24.896;2022-08-02T07:10:43;99374.91;;;24.97;83.93
8069;BME280;4077;43.702;24.896;2022-08-02T07:13:09;99371.47;;;25.14;81.46
8069;BME280;4077;43.702;24.896;2022-08-02T07:15:36;99386.56;;;25.46;79.81
8069;BME280;4077;43.702;24.896;2022-08-02T07:18:02;99383.25;;;25.58;78.16
8069;BME280;4077;43.702;24.896;2022-08-02T07:20:27;99387.94;;;25.53;78.61
8069;BME280;4077;43.702;24.896;2022-08-02T07:22:53;99370.84;;;25.60;78.28
8069;BME280;4077;43.702;24.896;2022-08-02T07:25:18;99379.88;;;25.74;77.61
8069;BME280;4077;43.702;24.896;2022-08-02T07:27:44;99375.25;;;25.77;76.83
8069;BME280;4077;43.702;24.896;2022-08-02T07:30:10;99371.59;;;25.80;76.42
8069;BME280;4077;43.702;24.896;2022-08-02T07:32:36;99380.47;;;25.79;77.61
8069;BME280;4077;43.702;24.896;2022-08-02T07:35:03;99380.06;;;25.86;77.89
8069;BME280;4077;43.702;24.896;2022-08-02T07:37:31;99375.03;;;25.82;76.69
8069;BME280;4077;43.702;24.896;2022-08-02T07:39:57;99375.16;;;25.79;76.05
8069;BME280;4077;43.702;24.896;2022-08-02T07:42:22;99372.53;;;25.61;76.92
8069;BME280;4077;43.702;24.896;2022-08-02T07:44:48;99370.94;;;25.42;77.59
8069;BME280;4077;43.702;24.896;2022-08-02T07:47:13;99380.94;;;25.35;76.62
8069;BME280;4077;43.702;24.896;2022-08-02T07:49:39;99373.41;;;25.27;76.66
8069;BME280;4077;43.702;24.896;2022-08-02T07:52:04;99370.22;;;25.55;78.04
8069;BME280;4077;43.702;24.896;2022-08-02T07:54:30;99375.03;;;25.82;75.61
8069;BME280;4077;43.702;24.896;2022-08-02T07:56:55;99386.66;;;25.95;73.66
8069;BME280;4077;43.702;24.896;2022-08-02T07:59:21;99372.03;;;25.71;73.44
8069;BME280;4077;43.702;24.896;2022-08-02T08:01:47;99377.00;;;25.94;72.46
8069;BME280;4077;43.702;24.896;2022-08-02T08:04:16;99380.22;;;26.16;72.55
8069;BME280;4077;43.702;24.896;2022-08-02T08:06:42;99388.06;;;26.34;71.45
8069;BME280;4077;43.702;24.896;2022-08-02T08:09:13;99380.25;;;26.48;68.89
8069;BME280;4077;43.702;24.896;2022-08-02T08:11:38;99386.41;;;26.64;68.22
8069;BME280;4077;43.702;24.896;2022-08-02T08:14:04;99390.66;;;26.83;68.42
8069;BME280;4077;43.702;24.896;2022-08-02T08:16:31;99391.69;;;27.12;66.95
8069;BME280;4077;43.702;24.896;2022-08-02T08:18:56;99389.44;;;27.04;65.80
8069;BME280;4077;43.702;24.896;2022-08-02T08:21:22;99389.97;;;26.95;64.86
8069;BME280;4077;43.702;24.896;2022-08-02T08:23:47;99388.00;;;26.98;65.63
8069;BME280;4077;43.702;24.896;2022-08-02T08:26:13;99390.28;;;27.20;64.13
8069;BME280;4077;43.702;24.896;2022-08-02T08:28:39;99389.72;;;27.30;64.49
8069;BME280;4077;43.702;24.896;2022-08-02T08:31:04;99387.47;;;27.38;62.80
8069;BME280;4077;43.702;24.896;2022-08-02T08:33:30;99393.75;;;27.51;62.97
8069;BME280;4077;43.702;24.896;2022-08-02T08:35:55;99385.53;;;27.56;61.13
8069;BME280;4077;43.702;24.896;2022-08-02T08:38:21;99389.63;;;27.61;61.64
8069;BME280;4077;43.702;24.896;2022-08-02T08:40:50;99384.13;;;27.64;61.24
8069;BME280;4077;43.702;24.896;2022-08-02T08:43:16;99383.38;;;27.62;60.71
8069;BME280;4077;43.702;24.896;2022-08-02T08:45:46;99381.31;;;27.67;60.20
8069;BME280;4077;43.702;24.896;2022-08-02T08:48:13;99375.78;;;27.56;59.66
8069;BME280;4077;43.702;24.896;2022-08-02T08:50:48;99378.69;;;27.51;59.85
8069;BME280;4077;43.702;24.896;2022-08-02T08:53:15;99374.63;;;27.46;59.16
8069;BME280;4077;43.702;24.896;2022-08-02T08:55:41;99383.09;;;27.52;59.10
8069;BME280;4077;43.702;24.896;2022-08-02T08:58:07;99375.63;;;27.59;58.84
8069;BME280;4077;43.702;24.896;2022-08-02T09:00:34;99378.75;;;27.66;59.66
8069;BME280;4077;43.702;24.896;2022-08-02T09:03:04;99376.94;;;27.66;58.92
8069;BME280;4077;43.702;24.896;2022-08-02T09:05:33;99379.16;;;27.74;59.21
8069;BME280;4077;43.702;24.896;2022-08-02T09:07:59;99378.31;;;27.73;57.13
8069;BME280;4077;43.702;24.896;2022-08-02T09:10:43;99380.19;;;27.71;57.23
8069;BME280;4077;43.702;24.896;2022-08-02T09:13:19;99377.31;;;27.60;57.48
8069;BME280;4077;43.702;24.896;2022-08-02T09:18:17;99371.47;;;27.84;56.67
8069;BME280;4077;43.702;24.896;2022-08-02T09:21:00;99368.06;;;27.96;56.15
8069;BME280;4077;43.702;24.896;2022-08-02T09:23:33;99371.09;;;28.04;55.17
8069;BME280;4077;43.702;24.896;2022-08-02T09:26:07;99369.56;;;28.00;54.75
8069;BME280;4077;43.702;24.896;2022-08-02T09:28:36;99363.31;;;28.15;54.30
8069;BME280;4077;43.702;24.896;2022-08-02T09:31:22;99363.69;;;28.38;53.77
8069;BME280;4077;43.702;24.896;2022-08-02T09:33:53;99364.00;;;28.60;52.90
8069;BME280;4077;43.702;24.896;2022-08-02T09:36:19;99370.38;;;28.99;53.48
8069;BME280;4077;43.702;24.896;2022-08-02T09:39:06;99374.53;;;29.81;51.48
8069;BME280;4077;43.702;24.896;2022-08-02T09:41:34;99378.19;;;30.55;49.08
8069;BME280;4077;43.702;24.896;2022-08-02T09:44:03;99384.16;;;31.30;47.75
8069;BME280;4077;43.702;24.896;2022-08-02T09:46:30;99388.84;;;31.50;46.25
8069;BME280;4077;43.702;24.896;2022-08-02T09:49:04;99393.50;;;31.82;45.48
8069;BME280;4077;43.702;24.896;2022-08-02T09:51:39;99398.97;;;32.03;44.16
8069;BME280;4077;43.702;24.896;2022-08-02T09:54:07;99391.00;;;31.92;44.34
8069;BME280;4077;43.702;24.896;2022-08-02T09:56:50;99378.97;;;31.40;44.58
8069;BME280;4077;43.702;24.896;2022-08-02T09:59:17;99372.72;;;30.69;46.24
8069;BME280;4077;43.702;24.896;2022-08-02T10:01:46;99368.75;;;30.25;47.37
8069;BME280;4077;43.702;24.896;2022-08-02T10:04:13;99361.56;;;29.76;48.03
8069;BME280;4077;43.702;24.896;2022-08-02T10:06:41;99363.75;;;29.31;48.76
8069;BME280;4077;43.702;24.896;2022-08-02T10:09:09;99353.19;;;29.17;49.38
8069;BME280;4077;43.702;24.896;2022-08-02T10:11:35;99354.97;;;29.16;49.77
8069;BME280;4077;43.702;24.896;2022-08-02T10:14:05;99356.38;;;29.22;50.35
8069;BME280;4077;43.702;24.896;2022-08-02T10:16:37;99346.19;;;29.41;49.57
8069;BME280;4077;43.702;24.896;2022-08-02T10:19:03;99351.38;;;29.30;49.57
8069;BME280;4077;43.702;24.896;2022-08-02T10:21:45;99359.59;;;29.40;49.43
8069;BME280;4077;43.702;24.896;2022-08-02T10:24:15;99345.56;;;29.51;49.46
8069;BME280;4077;43.702;24.896;2022-08-02T10:26:43;99349.75;;;29.55;49.24
8069;BME280;4077;43.702;24.896;2022-08-02T10:29:10;99345.13;;;29.31;49.21
8069;BME280;4077;43.702;24.896;2022-08-02T10:31:53;99342.47;;;29.31;49.60
8069;BME280;4077;43.702;24.896;2022-08-02T10:34:23;99343.41;;;29.30;48.87
8069;BME280;4077;43.702;24.896;2022-08-02T10:36:51;99336.38;;;29.16;48.86
8069;BME280;4077;43.702;24.896;2022-08-02T10:39:18;99337.38;;;29.41;49.42
8069;BME280;4077;43.702;24.896;2022-08-02T10:41:49;99338.88;;;29.45;47.72
8069;BME280;4077;43.702;24.896;2022-08-02T10:44:28;99340.91;;;29.67;47.02
8069;BME280;4077;43.702;24.896;2022-08-02T10:49:58;99330.59;;;29.75;47.15
8069;BME280;4077;43.702;24.896;2022-08-02T10:52:25;99330.38;;;29.65;47.54
8069;BME280;4077;43.702;24.896;2022-08-02T10:55:04;99318.63;;;29.42;48.08
8069;BME280;4077;43.702;24.896;2022-08-02T10:57:33;99323.88;;;29.57;47.97
8069;BME280;4077;43.702;24.896;2022-08-02T11:05:14;99320.38;;;29.69;46.90
8069;BME280;4077;43.702;24.896;2022-08-02T11:07:45;99321.09;;;29.71;47.11
8069;BME280;4077;43.702;24.896;2022-08-02T11:10:40;99320.47;;;29.93;45.35
8069;BME280;4077;43.702;24.896;2022-08-02T11:13:11;99315.97;;;30.06;43.83
8069;BME280;4077;43.702;24.896;2022-08-02T11:16:03;99318.91;;;30.27;43.50
8069;BME280;4077;43.702;24.896;2022-08-02T11:23:45;99323.63;;;29.98;43.52
8069;BME280;4077;43.702;24.896;2022-08-02T11:26:41;99313.81;;;30.11;43.63
8069;BME280;4077;43.702;24.896;2022-08-02T11:29:07;99320.63;;;30.03;43.96
8069;BME280;4077;43.702;24.896;2022-08-02T11:31:42;99315.31;;;30.03;44.56
8069;BME280;4077;43.702;24.896;2022-08-02T11:34:08;99315.66;;;29.85;44.88
8069;BME280;4077;43.702;24.896;2022-08-02T11:36:54;99311.66;;;29.67;45.14
8069;BME280;4077;43.702;24.896;2022-08-02T11:39:21;99305.25;;;29.57;44.45
8069;BME280;4077;43.702;24.896;2022-08-02T11:41:51;99301.06;;;29.27;45.14
8069;BME280;4077;43.702;24.896;2022-08-02T11:44:18;99296.84;;;29.25;45.02
8069;BME280;4077;43.702;24.896;2022-08-02T11:46:44;99305.19;;;29.06;45.75
8069;BME280;4077;43.702;24.896;2022-08-02T11:49:11;99299.69;;;28.82;46.83
8069;BME280;4077;43.702;24.896;2022-08-02T11:51:37;99294.19;;;28.85;46.50
8069;BME280;4077;43.702;24.896;2022-08-02T11:54:03;99294.44;;;28.95;46.23
8069;BME280;4077;43.702;24.896;2022-08-02T11:56:30;99289.63;;;28.60;47.86
8069;BME280;4077;43.702;24.896;2022-08-02T11:59:07;99287.66;;;28.37;47.75
8069;BME280;4077;43.702;24.896;2022-08-02T12:01:34;99290.25;;;28.51;47.19
8069;BME280;4077;43.702;24.896;2022-08-02T12:04:01;99291.16;;;28.64;46.79
8069;BME280;4077;43.702;24.896;2022-08-02T12:06:27;99289.97;;;28.68;47.03
8069;BME280;4077;43.702;24.896;2022-08-02T12:09:10;99286.06;;;29.01;47.79
8069;BME280;4077;43.702;24.896;2022-08-02T12:11:37;99288.44;;;29.18;45.21
8069;BME280;4077;43.702;24.896;2022-08-02T12:14:03;99295.44;;;29.32;45.66
8069;BME280;4077;43.702;24.896;2022-08-02T12:16:38;99288.63;;;29.40;45.76
8069;BME280;4077;43.702;24.896;2022-08-02T12:19:24;99292.38;;;29.51;46.21
8069;BME280;4077;43.702;24.896;2022-08-02T12:22:16;99293.22;;;29.64;45.13
8069;BME280;4077;43.702;24.896;2022-08-02T12:24:48;99291.00;;;29.58;44.11
8069;BME280;4077;43.702;24.896;2022-08-02T12:30:01;99290.88;;;29.47;44.35
8069;BME280;4077;43.702;24.896;2022-08-02T12:32:27;99295.03;;;29.38;44.96
8069;BME280;4077;43.702;24.896;2022-08-02T12:35:09;99276.28;;;29.14;45.08
8069;BME280;4077;43.702;24.896;2022-08-02T12:37:41;99282.34;;;29.16;44.22
8069;BME280;4077;43.702;24.896;2022-08-02T12:40:29;99282.56;;;29.13;43.73
8069;BME280;4077;43.702;24.896;2022-08-02T12:42:58;99279.81;;;29.27;44.08
8069;BME280;4077;43.702;24.896;2022-08-02T12:45:25;99286.22;;;29.37;42.72
8069;BME280;4077;43.702;24.896;2022-08-02T12:47:54;99273.00;;;29.49;42.93
8069;BME280;4077;43.702;24.896;2022-08-02T12:50:24;99275.53;;;29.76;42.05
8069;BME280;4077;43.702;24.896;2022-08-02T12:52:50;99279.16;;;29.87;41.84
8069;BME280;4077;43.702;24.896;2022-08-02T12:55:26;99277.75;;;29.94;41.92
8069;BME280;4077;43.702;24.896;2022-08-02T13:00:37;99272.47;;;30.06;42.28
8069;BME280;4077;43.702;24.896;2022-08-02T13:03:03;99272.19;;;30.10;41.48
8069;BME280;4077;43.702;24.896;2022-08-02T13:05:30;99277.25;;;30.26;40.43
8069;BME280;4077;43.702;24.896;2022-08-02T13:07:56;99272.25;;;30.45;39.59
8069;BME280;4077;43.702;24.896;2022-08-02T13:10:23;99265.75;;;30.49;40.20
8069;BME280;4077;43.702;24.896;2022-08-02T13:12:50;99280.00;;;30.61;41.16
8069;BME280;4077;43.702;24.896;2022-08-02T13:15:16;99270.69;;;30.67;40.65
8069;BME280;4077;43.702;24.896;2022-08-02T13:17:42;99276.56;;;30.59;40.80
8069;BME280;4077;43.702;24.896;2022-08-02T13:20:08;99275.22;;;30.30;41.24
8069;BME280;4077;43.702;24.896;2022-08-02T13:22:35;99278.03;;;30.03;41.04
8069;BME280;4077;43.702;24.896;2022-08-02T13:25:00;99272.78;;;29.77;41.75
8069;BME280;4077;43.702;24.896;2022-08-02T13:27:27;99267.25;;;29.80;40.87
8069;BME280;4077;43.702;24.896;2022-08-02T13:29:54;99269.78;;;29.82;41.22
8069;BME280;4077;43.702;24.896;2022-08-02T13:32:20;99265.56;;;29.79;41.57
8069;BME280;4077;43.702;24.896;2022-08-02T13:34:46;99265.03;;;29.74;41.22
8069;BME280;4077;43.702;24.896;2022-08-02T13:37:11;99269.38;;;29.75;40.85
8069;BME280;4077;43.702;24.896;2022-08-02T13:39:37;99261.09;;;29.67;42.17
8069;BME280;4077;43.702;24.896;2022-08-02T13:42:03;99261.00;;;29.56;43.24
8069;BME280;4077;43.702;24.896;2022-08-02T13:44:28;99258.72;;;29.50;44.21
8069;BME280;4077;43.702;24.896;2022-08-02T13:46:54;99254.72;;;29.57;43.38
8069;BME280;4077;43.702;24.896;2022-08-02T13:49:19;99260.88;;;29.57;43.40
8069;BME280;4077;43.702;24.896;2022-08-02T13:51:45;99261.09;;;29.54;43.02